Time;durP1;ratioP1;P1;durP2;ratioP2;P2;SDS_P1;SDS_P2;PMS_P1;PMS_P2;Temp;Humidity;BMP_temperature;BMP_pressure;BME280_temperature;BME280_humidity;BME280_pressure;Samples;Min_cycle;Max_cycle;Signal;HPM_P1;HPM_P2
2023/03/13 00:01:46;;;;;;;2.90;1.80;;;;;;;-2.25;71.78;98828.00;104996;1270;75968;-25
2023/03/13 00:04:14;;;;;;;5.10;2.20;;;;;;;-2.43;72.49;98825.67;103158;1270;2208248;-26
2023/03/13 00:06:43;;;;;;;3.10;1.70;;;;;;;-2.62;72.78;98823.04;105242;1264;61906;-25
2023/03/13 00:09:13;;;;;;;4.70;1.80;;;;;;;-2.72;73.40;98819.95;105132;1266;61956;-25
2023/03/13 00:11:43;;;;;;;4.60;1.70;;;;;;;-2.18;73.78;98819.60;104965;1269;72718;-25
2023/03/13 00:14:14;;;;;;;4.20;1.60;;;;;;;-1.27;72.48;98818.19;104804;1270;75529;-25
2023/03/13 00:16:42;;;;;;;3.50;1.90;;;;;;;-1.01;70.75;98817.77;104955;1268;73159;-26
2023/03/13 00:19:11;;;;;;;3.00;1.80;;;;;;;-1.14;70.07;98811.23;105206;1264;61233;-25
2023/03/13 00:21:40;;;;;;;4.00;1.60;;;;;;;-1.35;70.22;98803.13;105245;1263;61863;-26
2023/03/13 00:24:10;;;;;;;3.90;1.70;;;;;;;-1.57;70.47;98796.94;105226;1266;74453;-25
2023/03/13 00:26:40;;;;;;;3.30;1.80;;;;;;;-1.79;70.89;98797.89;104921;1269;74662;-25
2023/03/13 00:29:09;;;;;;;4.90;2.40;;;;;;;-2.13;73.95;98793.23;105103;1270;74316;-26
2023/03/13 00:31:39;;;;;;;4.50;2.50;;;;;;;-2.45;75.18;98797.85;105020;1269;61124;-25
2023/03/13 00:34:08;;;;;;;5.00;2.60;;;;;;;-2.66;74.88;98799.53;105669;1262;61839;-25
2023/03/13 00:36:38;;;;;;;5.80;2.70;;;;;;;-2.88;74.88;98801.57;105621;1261;74464;-25
2023/03/13 00:39:06;;;;;;;11.70;4.70;;;;;;;-3.10;75.03;98797.48;105641;1260;75854;-25
2023/03/13 00:41:36;;;;;;;20.80;9.10;;;;;;;-3.23;75.13;98785.46;105657;1260;74380;-25
2023/03/13 00:44:07;;;;;;;8.00;4.70;;;;;;;-3.30;76.22;98776.64;105307;1274;62959;-26
2023/03/13 00:46:38;;;;;;;9.80;5.20;;;;;;;-2.73;76.50;98776.95;105285;1261;61889;-25
2023/03/13 00:49:06;;;;;;;10.80;6.30;;;;;;;-2.10;75.07;98785.15;105195;1263;72192;-25
2023/03/13 00:51:37;;;;;;;19.40;6.90;;;;;;;-2.03;74.03;98790.73;105442;1263;75609;-27
2023/03/13 00:54:06;;;;;;;20.40;8.90;;;;;;;-2.22;74.33;98790.14;105345;1263;74339;-27
2023/03/13 00:56:40;;;;;;;15.20;8.10;;;;;;;-2.46;75.07;98791.96;105345;1257;60991;-25
2023/03/13 00:59:09;;;;;;;18.90;6.90;;;;;;;-2.72;75.85;98790.90;105279;1263;61740;-29
2023/03/13 01:01:38;;;;;;;12.30;5.40;;;;;;;-2.95;76.84;98789.71;105528;1257;73282;-28
2023/03/13 01:04:09;;;;;;;9.90;4.80;;;;;;;-3.13;77.40;98789.40;105429;1263;75866;-29
2023/03/13 01:06:41;;;;;;;11.70;4.20;;;;;;;-3.29;77.88;98788.18;105439;1263;73993;-26
2023/03/13 01:09:12;;;;;;;8.00;3.10;;;;;;;-3.19;78.59;98789.92;105256;1263;61483;-26
2023/03/13 01:11:43;;;;;;;8.40;3.70;;;;;;;-2.53;77.54;98795.55;105281;1265;61682;-24
2023/03/13 01:14:15;;;;;;;7.50;3.90;;;;;;;-2.30;76.16;98800.78;105290;1260;74823;-24
2023/03/13 01:16:47;;;;;;;8.30;3.40;;;;;;;-2.44;75.81;98805.30;105472;1267;75903;-26
2023/03/13 01:19:17;;;;;;;6.70;3.20;;;;;;;-2.69;76.07;98806.41;105403;1263;74211;-25
2023/03/13 01:21:46;;;;;;;6.60;3.50;;;;;;;-2.95;76.75;98801.27;105476;1260;61099;-24
2023/03/13 01:24:15;;;;;;;7.20;4.10;;;;;;;-3.22;77.15;98803.23;105585;1264;61967;-24
2023/03/13 01:26:54;;;;;;;4.60;2.80;;;;;;;-3.48;77.82;98802.61;105411;1263;74523;-24
2023/03/13 01:29:24;;;;;;;3.60;2.40;;;;;;;-3.64;79.01;98802.90;105520;1263;76004;-24
2023/03/13 01:31:52;;;;;;;3.10;2.20;;;;;;;-3.59;79.68;98799.38;105290;1262;74203;-24
2023/03/13 01:34:22;;;;;;;7.00;2.90;;;;;;;-2.87;78.92;98802.73;105367;1258;61087;-24
2023/03/13 01:36:53;;;;;;;4.50;2.50;;;;;;;-2.47;77.26;98802.86;105374;1262;61738;-24
2023/03/13 01:39:22;;;;;;;3.80;2.60;;;;;;;-2.49;76.40;98800.54;105576;1258;74618;-25
2023/03/13 01:41:54;;;;;;;5.20;3.20;;;;;;;-2.68;76.40;98802.33;105583;1261;75677;-24
2023/03/13 01:44:24;;;;;;;4.00;1.30;;;;;;;-2.87;77.13;98806.13;105434;1257;74184;-24
2023/03/13 01:46:54;;;;;;;4.10;2.40;;;;;;;-2.98;77.74;98809.35;105115;1266;61281;-24
2023/03/13 01:49:32;;;;;;;1.90;0.90;;;;;;;-3.07;78.01;98814.72;105248;1263;61606;-24
2023/03/13 01:52:22;;;;;;;2.30;1.50;;;;;;;-2.91;78.24;98816.79;105058;1264;74665;-24
2023/03/13 01:55:06;;;;;;;4.00;1.80;;;;;;;-2.28;76.55;98821.81;105171;1265;75687;-25
2023/03/13 01:57:39;;;;;;;3.50;1.70;;;;;;;-2.16;75.48;98824.63;105407;1258;74167;-24
2023/03/13 02:00:15;;;;;;;4.00;2.50;;;;;;;-2.30;75.37;98823.42;105445;1263;61196;-25
2023/03/13 02:02:48;;;;;;;3.90;2.40;;;;;;;-2.55;75.82;98826.73;105070;1259;61749;-24
2023/03/13 02:05:20;;;;;;;3.00;1.80;;;;;;;-2.77;76.66;98834.40;105081;1267;73997;-25
2023/03/13 02:08:00;;;;;;;5.00;2.90;;;;;;;-2.95;77.70;98840.87;105105;1262;74822;-24
2023/03/13 02:10:30;;;;;;;4.80;2.30;;;;;;;-2.84;78.54;98858.02;105079;1264;73141;-24
2023/03/13 02:12:59;;;;;;;9.00;2.50;;;;;;;-2.23;77.36;98863.65;105041;1267;61424;-24
2023/03/13 02:15:28;;;;;;;4.70;2.60;;;;;;;-1.96;75.64;98865.68;105213;1263;62026;-25
2023/03/13 02:17:59;;;;;;;4.40;2.30;;;;;;;-2.01;75.42;98866.19;105153;1257;74657;-24
2023/03/13 02:20:34;;;;;;;7.00;2.90;;;;;;;-2.19;75.78;98867.96;105387;1263;75676;-24
2023/03/13 02:23:06;;;;;;;7.00;3.40;;;;;;;-2.37;76.57;98865.63;105155;1263;74097;-25
2023/03/13 02:25:47;;;;;;;5.30;3.70;;;;;;;-2.59;77.63;98864.41;105269;1257;61359;-24
2023/03/13 02:28:32;;;;;;;2.00;1.40;;;;;;;-2.75;79.04;98865.09;105152;1266;61806;-24
2023/03/13 02:31:03;;;;;;;6.20;3.20;;;;;;;-2.30;78.57;98875.27;105259;1257;73630;-24
2023/03/13 02:33:37;;;;;;;6.20;2.80;;;;;;;-1.82;76.74;98878.98;105447;1257;74945;-25
2023/03/13 02:36:09;;;;;;;7.40;3.50;;;;;;;-1.76;76.17;98885.94;105048;1257;73966;-24
2023/03/13 02:38:45;;;;;;;5.40;3.20;;;;;;;-1.93;76.52;98884.45;105111;1260;61188;-24
2023/03/13 02:41:14;;;;;;;4.00;2.60;;;;;;;-2.15;77.44;98877.17;105276;1264;61804;-24
2023/03/13 02:43:43;;;;;;;7.00;2.80;;;;;;;-2.32;78.45;98877.89;105153;1257;74389;-24
2023/03/13 02:46:16;;;;;;;5.10;3.20;;;;;;;-2.46;79.48;98881.21;105150;1262;76071;-24
2023/03/13 02:48:53;;;;;;;5.40;3.20;;;;;;;-2.36;80.13;98879.20;104996;1257;74193;-25
2023/03/13 02:51:37;;;;;;;8.00;3.10;;;;;;;-1.65;77.86;98876.23;105084;1263;61251;-24
2023/03/13 02:54:11;;;;;;;8.60;3.10;;;;;;;-1.49;76.72;98878.58;105050;1265;61611;-25
2023/03/13 02:56:42;;;;;;;5.80;3.30;;;;;;;-1.52;76.36;98881.55;105085;1257;75042;-24
2023/03/13 02:59:10;;;;;;;6.20;2.70;;;;;;;-1.76;77.50;98883.73;105042;1266;74900;-25
2023/03/13 03:01:43;;;;;;;3.70;2.70;;;;;;;-1.93;78.13;98884.46;105546;1257;74235;-24
2023/03/13 03:04:11;;;;;;;4.50;3.00;;;;;;;-2.05;78.39;98887.94;105338;1257;61098;-25
2023/03/13 03:06:42;;;;;;;6.50;3.70;;;;;;;-2.19;79.21;98891.26;105463;1258;61055;-24
2023/03/13 03:09:11;;;;;;;6.00;3.10;;;;;;;-1.96;79.02;98885.39;105290;1261;74636;-24
2023/03/13 03:11:39;;;;;;;6.30;3.30;;;;;;;-1.30;77.44;98880.81;105366;1264;74240;-26
2023/03/13 03:14:11;;;;;;;5.30;2.90;;;;;;;-1.08;75.79;98877.30;105492;1262;74172;-25
2023/03/13 03:16:43;;;;;;;7.70;3.80;;;;;;;-1.28;75.85;98878.52;105299;1264;61194;-24
2023/03/13 03:19:14;;;;;;;5.10;2.70;;;;;;;-1.50;76.58;98876.40;105475;1257;61007;-24
2023/03/13 03:21:42;;;;;;;3.40;2.50;;;;;;;-1.70;77.51;98871.11;105609;1257;74481;-24
2023/03/13 03:24:11;;;;;;;3.10;1.50;;;;;;;-1.86;78.02;98868.59;105601;1263;75784;-25
2023/03/13 03:26:41;;;;;;;4.60;2.30;;;;;;;-2.00;78.20;98864.44;105488;1257;73130;-25
2023/03/13 03:29:14;;;;;;;6.10;3.20;;;;;;;-1.89;78.99;98860.01;105362;1258;62795;-24
2023/03/13 03:31:43;;;;;;;3.60;2.50;;;;;;;-1.26;77.43;98861.73;105194;1263;61100;-24
2023/03/13 03:34:12;;;;;;;5.40;2.80;;;;;;;-1.06;75.80;98862.23;105313;1264;74502;-24
2023/03/13 03:36:41;;;;;;;6.60;3.80;;;;;;;-1.18;75.81;98864.86;105379;1263;75986;-24
2023/03/13 03:39:11;;;;;;;6.20;4.00;;;;;;;-1.45;76.62;98863.11;105141;1257;74163;-25
2023/03/13 03:41:40;;;;;;;7.20;3.60;;;;;;;-1.67;77.56;98860.95;105199;1263;61209;-24
2023/03/13 03:44:08;;;;;;;12.00;3.70;;;;;;;-1.78;77.91;98864.25;105203;1263;61970;-27
2023/03/13 03:46:50;;;;;;;8.30;2.90;;;;;;;-1.92;78.41;98859.25;105250;1257;74279;-27
2023/03/13 03:49:19;;;;;;;6.90;3.20;;;;;;;-1.52;78.30;98857.73;105190;1262;75908;-26
2023/03/13 03:51:48;;;;;;;4.20;3.00;;;;;;;-1.00;76.10;98861.70;105152;1257;74197;-27
2023/03/13 03:54:20;;;;;;;7.00;3.30;;;;;;;-0.99;75.15;98864.04;105143;1264;61218;-28
2023/03/13 03:56:49;;;;;;;6.20;3.20;;;;;;;-1.20;75.35;98858.81;105139;1262;61940;-28
2023/03/13 03:59:23;;;;;;;2.90;2.30;;;;;;;-1.48;76.15;98857.06;105526;1258;74710;-25
2023/03/13 04:02:02;;;;;;;10.00;4.70;;;;;;;-1.72;76.88;98855.71;105561;1262;75841;-25
2023/03/13 04:04:32;;;;;;;3.80;3.40;;;;;;;-1.96;77.69;98856.31;105141;1258;74852;-25
2023/03/13 04:07:08;;;;;;;6.50;3.10;;;;;;;-1.84;78.30;98858.98;105154;1262;62766;-25
2023/03/13 04:09:38;;;;;;;2.70;2.10;;;;;;;-1.33;76.90;98857.59;105121;1258;61045;-25
2023/03/13 04:12:15;;;;;;;6.30;3.60;;;;;;;-1.23;76.11;98857.55;105139;1257;75420;-25
2023/03/13 04:14:47;;;;;;;6.00;3.70;;;;;;;-1.38;76.09;98860.30;105289;1257;75809;-25
2023/03/13 04:17:16;;;;;;;5.70;3.50;;;;;;;-1.57;76.62;98858.23;105527;1263;73959;-25
2023/03/13 04:19:47;;;;;;;6.60;3.30;;;;;;;-1.80;77.42;98855.77;105564;1257;61068;-25
2023/03/13 04:22:16;;;;;;;4.70;2.40;;;;;;;-1.95;77.72;98858.34;105489;1264;61493;-25
2023/03/13 04:24:50;;;;;;;2.70;2.30;;;;;;;-2.11;78.51;98859.86;105572;1258;75302;-25
2023/03/13 04:27:20;;;;;;;7.70;2.90;;;;;;;-1.86;79.06;98859.05;105582;1263;75923;-25
2023/03/13 04:29:50;;;;;;;5.30;2.90;;;;;;;-1.25;77.30;98856.94;105533;1263;74149;-25
2023/03/13 04:32:30;;;;;;;12.10;4.30;;;;;;;-1.11;76.34;98858.65;105596;1262;61100;-25
2023/03/13 04:35:27;;;;;;;4.10;2.70;;;;;;;-1.27;76.27;98860.44;105327;1262;61581;-25
2023/03/13 04:38:05;;;;;;;5.60;3.50;;;;;;;-1.47;77.03;98865.89;105144;1263;75065;-25
2023/03/13 04:40:50;;;;;;;8.30;3.40;;;;;;;-1.70;77.63;98861.06;105189;1257;75892;-25
2023/03/13 04:43:30;;;;;;;8.50;4.10;;;;;;;-1.77;78.55;98870.84;105222;1260;74238;-25
2023/03/13 04:46:07;;;;;;;10.90;4.70;;;;;;;-1.25;77.32;98871.75;105164;1262;61180;-25
2023/03/13 04:48:46;;;;;;;13.10;5.40;;;;;;;-0.98;76.23;98876.59;105132;1262;61649;-25
2023/03/13 04:51:30;;;;;;;13.00;5.60;;;;;;;-1.08;75.94;98884.47;105173;1257;74921;-25
2023/03/13 04:54:37;;;;;;;8.80;4.80;;;;;;;-1.33;76.48;98886.35;104844;1262;75818;-25
2023/03/13 04:57:13;;;;;;;11.30;5.10;;;;;;;-1.48;77.29;98890.47;104839;1267;74126;-25
2023/03/13 05:00:21;;;;;;;5.30;4.00;;;;;;;-1.69;77.87;98895.94;105164;1257;61490;-25
2023/03/13 05:03:09;;;;;;;4.40;2.50;;;;;;;-1.68;78.37;98903.04;105585;1263;61758;-25
2023/03/13 05:05:57;;;;;;;6.80;4.00;;;;;;;-0.93;76.83;98912.22;105601;1257;75569;-25
2023/03/13 05:08:45;;;;;;;3.80;2.70;;;;;;;-0.61;75.24;98920.40;105563;1263;74662;-25
2023/03/13 05:11:28;;;;;;;;;;;;;;;-0.75;75.10;98919.70;105180;1262;74342;-25
2023/03/13 05:14:36;;;;;;;9.60;4.40;;;;;;;-0.96;75.29;98915.55;105365;1257;61196;-26
2023/03/13 05:17:16;;;;;;;5.90;3.90;;;;;;;-1.19;75.86;98913.63;105270;1262;61867;-24
2023/03/13 05:19:57;;;;;;;5.90;4.10;;;;;;;-1.39;76.62;98915.00;105391;1257;75684;-25
2023/03/13 05:22:44;;;;;;;5.80;4.00;;;;;;;-1.55;77.36;98921.36;105355;1258;75918;-25
2023/03/13 05:25:27;;;;;;;3.70;2.60;;;;;;;-1.60;78.25;98924.59;105159;1257;73204;-25
2023/03/13 05:28:14;;;;;;;7.60;4.10;;;;;;;-0.87;77.00;98927.68;105332;1269;61221;-25
2023/03/13 05:30:44;;;;;;;7.80;3.20;;;;;;;-0.57;75.11;98928.10;105250;1257;61169;-25
2023/03/13 05:33:30;;;;;;;8.80;4.80;;;;;;;-0.61;74.69;98926.70;105225;1257;74393;-25
2023/03/13 05:36:32;;;;;;;8.80;3.30;;;;;;;-0.83;75.01;98925.28;105207;1262;75911;-25
2023/03/13 05:39:10;;;;;;;8.50;5.10;;;;;;;-1.02;75.73;98925.82;105138;1258;74152;-25
2023/03/13 05:41:48;;;;;;;5.80;3.40;;;;;;;-1.11;76.50;98924.41;105158;1257;61340;-26
2023/03/13 05:44:50;;;;;;;3.60;2.80;;;;;;;-1.16;76.92;98921.22;105137;1263;62085;-25
2023/03/13 05:47:28;;;;;;;8.20;3.50;;;;;;;-1.04;77.35;98929.12;105249;1257;75223;-25
2023/03/13 05:50:26;;;;;;;7.20;4.00;;;;;;;-0.12;75.47;98931.48;105331;1258;75641;-25
2023/03/13 05:52:55;;;;;;;11.00;4.50;;;;;;;0.24;73.61;98926.15;105346;1257;74058;-25
2023/03/13 05:55:53;;;;;;;11.10;5.90;;;;;;;0.27;72.77;98920.41;105146;1258;61076;-25
2023/03/13 05:58:57;;;;;;;;;;;;;;;0.14;72.85;98920.77;105313;1262;61494;-26
2023/03/13 06:01:44;;;;;;;6.50;3.80;;;;;;;0.02;73.28;98924.66;105131;1259;75356;-25
2023/03/13 06:04:26;;;;;;;8.40;5.40;;;;;;;-0.09;73.28;98930.91;105181;1263;75393;-25
2023/03/13 06:06:54;;;;;;;11.00;5.40;;;;;;;-0.28;73.64;98927.34;105174;1263;74222;-25
2023/03/13 06:09:24;;;;;;;5.50;3.90;;;;;;;-0.40;74.32;98931.05;105326;1257;61041;-26
2023/03/13 06:11:55;;;;;;;5.80;4.10;;;;;;;-0.14;74.34;98931.08;105357;1258;61887;-26
2023/03/13 06:14:24;;;;;;;10.50;4.90;;;;;;;0.27;72.51;98937.80;105252;1257;75193;-25
2023/03/13 06:25:03;;;;;;;6.70;4.90;;;;;;;0.12;73.37;98953.77;102649;1292;600206;-25
2023/03/13 06:27:32;;;;;;;10.70;6.40;;;;;;;0.21;73.65;98942.52;104842;1272;61152;-25
2023/03/13 06:30:01;;;;;;;7.20;4.60;;;;;;;0.24;73.04;98937.42;104870;1267;61848;-26
2023/03/13 06:32:30;;;;;;;8.90;4.90;;;;;;;0.52;72.53;98940.03;104871;1267;72962;-25
2023/03/13 06:34:59;;;;;;;10.10;4.90;;;;;;;1.13;70.33;98933.67;104874;1268;75912;-25
2023/03/13 06:37:30;;;;;;;12.20;5.50;;;;;;;1.17;68.91;98930.77;104067;1267;2043467;-26
2023/03/13 06:39:58;;;;;;;14.20;4.50;;;;;;;1.13;68.94;98933.48;105022;1263;61077;-26
2023/03/13 06:42:27;;;;;;;11.60;3.80;;;;;;;1.09;68.93;98933.70;105176;1264;61259;-25
2023/03/13 06:44:55;;;;;;;8.00;5.30;;;;;;;1.05;68.69;98931.45;105181;1263;73609;-25
2023/03/13 06:47:24;;;;;;;3.90;2.90;;;;;;;1.11;68.74;98925.05;105148;1264;75905;-26
2023/03/13 06:49:52;;;;;;;8.80;4.90;;;;;;;1.20;68.79;98924.63;105169;1264;73977;-25
2023/03/13 06:52:21;;;;;;;4.00;3.50;;;;;;;1.29;68.15;98921.67;105205;1264;61099;-25
2023/03/13 06:55:05;;;;;;;11.60;4.00;;;;;;;1.36;67.79;98924.98;105153;1264;61042;-25
2023/03/13 06:57:33;;;;;;;6.10;3.80;;;;;;;1.49;67.57;98920.59;105073;1266;73289;-25
2023/03/13 07:00:05;;;;;;;8.50;3.40;;;;;;;1.62;65.68;98928.75;105166;1264;75472;-24
2023/03/13 07:02:33;;;;;;;4.90;3.10;;;;;;;1.67;65.39;98928.32;105057;1266;74222;-24
2023/03/13 07:05:05;;;;;;;7.00;4.00;;;;;;;1.86;65.40;98928.61;105010;1264;61157;-25
2023/03/13 07:07:34;;;;;;;7.50;2.90;;;;;;;1.86;64.36;98932.25;105021;1264;61055;-24
2023/03/13 07:10:04;;;;;;;6.50;3.00;;;;;;;2.06;63.96;98925.67;105135;1267;73617;-24
2023/03/13 07:12:34;;;;;;;5.00;2.50;;;;;;;2.01;62.92;98929.46;104709;1264;74833;-25
2023/03/13 07:15:04;;;;;;;3.10;1.90;;;;;;;2.00;62.38;98933.45;104738;1270;73912;-25
2023/03/13 07:17:33;;;;;;;8.20;3.10;;;;;;;2.09;62.10;98934.05;104785;1267;61137;-25
2023/03/13 07:20:04;;;;;;;3.60;2.60;;;;;;;2.14;61.49;98928.20;105174;1267;61212;-24
2023/03/13 07:22:33;;;;;;;6.30;2.80;;;;;;;2.10;60.87;98914.46;105043;1269;73411;-25
2023/03/13 07:25:03;;;;;;;3.80;2.90;;;;;;;2.03;60.77;98927.30;104860;1266;75786;-24
2023/03/13 07:27:32;;;;;;;5.60;2.80;;;;;;;2.22;60.56;98925.03;104824;1267;74270;-25
2023/03/13 07:30:01;;;;;;;2.30;1.70;;;;;;;2.34;59.60;98920.17;104828;1267;61076;-25
2023/03/13 07:32:31;;;;;;;4.80;2.00;;;;;;;2.45;58.99;98918.08;105107;1268;62071;-25
2023/03/13 07:35:02;;;;;;;7.20;2.30;;;;;;;2.50;58.64;98914.23;105106;1263;75263;-25
2023/03/13 07:37:32;;;;;;;8.30;2.20;;;;;;;2.61;58.47;98911.63;105082;1268;74687;-25
2023/03/13 07:40:03;;;;;;;5.20;3.00;;;;;;;2.60;56.42;98909.49;105112;1266;74126;-25
2023/03/13 07:42:34;;;;;;;5.10;1.70;;;;;;;2.73;56.49;98906.73;105245;1263;61088;-26
2023/03/13 07:45:04;;;;;;;4.50;2.90;;;;;;;2.73;55.43;98902.14;105226;1263;61174;-25
2023/03/13 07:47:33;;;;;;;5.30;2.00;;;;;;;2.72;55.67;98908.21;105056;1268;74681;-25
2023/03/13 07:50:03;;;;;;;3.10;2.00;;;;;;;2.80;56.53;98913.77;105057;1266;75963;-25
2023/03/13 07:52:32;;;;;;;2.90;2.30;;;;;;;2.81;55.22;98913.71;104916;1263;73166;-25
2023/03/13 07:55:01;;;;;;;4.10;2.30;;;;;;;2.76;54.20;98902.67;104897;1263;61143;-26
2023/03/13 07:57:31;;;;;;;3.90;2.20;;;;;;;2.92;53.79;98906.29;104930;1263;61671;-25
2023/03/13 08:00:08;;;;;;;;;;;;;;;2.95;53.82;98901.31;105028;1263;74564;-25
2023/03/13 08:02:39;;;;;;;3.10;2.00;;;;;;;2.99;53.82;98900.63;105128;1269;75975;-25
2023/03/13 08:05:08;;;;;;;3.70;1.70;;;;;;;3.05;54.07;98894.98;105179;1263;74148;-25
2023/03/13 08:15:24;;;;;;;2.60;1.70;;;;;;;3.34;53.54;98894.31;102691;1292;600213;-25
2023/03/13 08:17:56;;;;;;;3.30;2.00;;;;;;;3.30;53.42;98904.84;105184;1264;61283;-26
2023/03/13 08:20:28;;;;;;;3.40;1.50;;;;;;;3.24;54.29;98907.70;104815;1263;61104;-25
2023/03/13 08:22:57;;;;;;;4.50;2.30;;;;;;;3.29;54.20;98906.40;105207;1263;73797;-25
2023/03/13 08:25:26;;;;;;;4.00;1.70;;;;;;;3.16;54.52;98910.86;105131;1263;75884;-25
2023/03/13 08:27:55;;;;;;;2.80;1.80;;;;;;;3.19;54.70;98918.61;103329;1266;2101771;-26
2023/03/13 08:30:24;;;;;;;3.70;2.50;;;;;;;3.17;54.54;98910.46;104862;1261;61166;-26
2023/03/13 08:32:53;;;;;;;4.40;2.50;;;;;;;3.14;54.24;98913.37;105192;1267;61608;-25
2023/03/13 08:35:21;;;;;;;5.80;2.90;;;;;;;3.03;54.78;98909.84;105260;1261;73751;-25
2023/03/13 08:37:51;;;;;;;2.90;1.60;;;;;;;3.21;55.04;98910.12;105257;1260;75581;-25
2023/03/13 08:40:19;;;;;;;3.00;2.20;;;;;;;3.22;54.32;98906.28;105216;1260;74117;-25
2023/03/13 08:42:48;;;;;;;3.80;2.00;;;;;;;3.13;54.41;98913.42;105224;1261;61068;-25
2023/03/13 08:45:18;;;;;;;3.40;2.30;;;;;;;3.15;54.75;98908.68;105061;1260;61572;-25
2023/03/13 08:47:52;;;;;;;2.80;2.00;;;;;;;3.18;55.00;98912.66;105058;1265;74490;-25
2023/03/13 08:50:20;;;;;;;3.00;2.20;;;;;;;3.26;55.04;98910.84;105034;1261;74838;-25
2023/03/13 08:52:49;;;;;;;2.70;1.70;;;;;;;3.31;54.84;98910.25;105084;1260;73768;-25
2023/03/13 08:55:18;;;;;;;1.60;1.40;;;;;;;3.31;54.63;98917.48;105125;1260;61086;-25
2023/03/13 08:57:46;;;;;;;3.50;1.80;;;;;;;3.28;54.91;98919.48;104913;1266;61168;-26
2023/03/13 09:00:17;;;;;;;5.10;1.60;;;;;;;3.36;54.99;98917.02;105129;1260;73251;-25
2023/03/13 09:02:45;;;;;;;4.20;2.50;;;;;;;3.45;55.22;98919.48;105021;1268;75880;-25
2023/03/13 09:05:14;;;;;;;3.40;1.80;;;;;;;3.47;55.51;98924.67;105218;1260;74218;-25
2023/03/13 09:07:43;;;;;;;7.20;3.00;;;;;;;3.56;55.15;98919.73;105241;1260;60995;-25
2023/03/13 09:10:11;;;;;;;4.10;2.00;;;;;;;3.54;55.97;98920.88;105114;1264;61651;-25
2023/03/13 09:12:41;;;;;;;4.90;1.50;;;;;;;3.54;55.35;98919.29;105158;1260;74543;-23
2023/03/13 09:15:13;;;;;;;1.80;1.30;;;;;;;3.46;55.48;98918.58;105120;1261;75722;-25
2023/03/13 09:17:43;;;;;;;1.30;1.20;;;;;;;3.37;55.63;98920.39;105137;1260;73960;-25
2023/03/13 09:20:12;;;;;;;10.80;2.60;;;;;;;3.53;55.99;98920.57;105220;1260;61272;-25
2023/03/13 09:22:42;;;;;;;4.50;2.40;;;;;;;3.55;55.18;98917.89;105248;1265;61569;-23
2023/03/13 09:25:12;;;;;;;6.00;2.40;;;;;;;3.50;55.07;98915.27;105213;1263;74484;-23
2023/03/13 09:27:46;;;;;;;2.70;2.00;;;;;;;3.51;54.81;98918.10;105116;1268;75753;-23
2023/03/13 09:30:14;;;;;;;2.10;1.50;;;;;;;3.42;54.91;98910.36;105182;1260;74178;-23
2023/03/13 09:32:43;;;;;;;3.30;1.30;;;;;;;3.36;55.19;98914.63;105126;1261;61164;-24
2023/03/13 09:35:12;;;;;;;2.70;1.30;;;;;;;3.40;55.29;98917.18;104919;1266;61597;-25
2023/03/13 09:37:41;;;;;;;4.10;1.90;;;;;;;3.50;54.57;98914.09;105239;1261;74491;-25
2023/03/13 09:40:14;;;;;;;3.10;1.90;;;;;;;3.50;53.44;98911.31;105232;1261;75843;-25
2023/03/13 09:42:59;;;;;;;2.10;1.30;;;;;;;3.48;53.05;98912.95;105575;1256;74212;-25
2023/03/13 09:45:33;;;;;;;2.30;1.40;;;;;;;3.49;51.96;98904.63;105522;1257;61263;-23
2023/03/13 09:48:11;;;;;;;1.70;1.30;;;;;;;3.46;51.65;98913.41;105415;1255;61157;-24
2023/03/13 09:50:43;;;;;;;3.40;1.70;;;;;;;3.39;51.21;98909.81;105341;1257;73677;-25
2023/03/13 09:53:20;;;;;;;2.00;1.20;;;;;;;3.35;51.17;98905.03;105375;1262;75238;-25
2023/03/13 09:55:49;;;;;;;2.50;1.70;;;;;;;3.34;51.39;98897.08;105593;1256;74191;-26
2023/03/13 09:58:22;;;;;;;2.70;1.60;;;;;;;3.23;51.64;98903.15;105501;1262;61457;-23
2023/03/13 10:00:52;;;;;;;2.80;1.80;;;;;;;3.31;52.15;98898.23;105527;1257;61798;-23
2023/03/13 10:03:43;;;;;;;3.50;1.80;;;;;;;3.32;51.90;98897.67;105548;1257;74645;-25
2023/03/13 10:06:20;;;;;;;4.20;2.00;;;;;;;3.31;51.95;98894.80;105521;1262;73978;-25
2023/03/13 10:08:52;;;;;;;2.50;1.70;;;;;;;3.26;52.02;98882.89;105165;1257;74060;-25
2023/03/13 10:11:26;;;;;;;2.80;1.50;;;;;;;3.27;52.72;98886.43;105541;1260;61155;-25
2023/03/13 10:13:55;;;;;;;;;;;;;;;3.32;52.14;98885.00;105600;1262;61209;-25
2023/03/13 10:16:37;;;;;;;2.30;1.40;;;;;;;3.36;52.25;98881.69;105619;1257;74496;-25
2023/03/13 10:19:30;;;;;;;1.50;1.30;;;;;;;3.41;52.32;98878.81;105472;1257;75910;-25
2023/03/13 10:22:01;;;;;;;2.10;1.50;;;;;;;3.48;52.40;98876.89;105543;1257;74159;-25
2023/03/13 10:25:23;;;;;;;3.60;1.90;;;;;;;3.53;51.99;98877.52;105405;1255;61787;-25
2023/03/13 10:27:56;;;;;;;1.70;1.40;;;;;;;3.39;51.78;98868.12;105598;1259;61704;-25
2023/03/13 10:30:29;;;;;;;3.00;1.50;;;;;;;3.46;52.61;98871.55;105629;1260;74517;-25
2023/03/13 10:33:06;;;;;;;3.50;1.60;;;;;;;3.53;52.62;98870.31;105431;1258;76083;-24
2023/03/13 10:35:38;;;;;;;3.80;1.80;;;;;;;3.54;52.60;98861.62;105647;1257;73954;-25
2023/03/13 10:38:11;;;;;;;2.30;1.50;;;;;;;3.47;53.04;98861.70;105461;1262;62719;-25
2023/03/13 10:40:42;;;;;;;4.00;2.60;;;;;;;3.54;53.12;98860.09;105429;1254;61604;-25
2023/03/13 10:43:16;;;;;;;4.20;2.20;;;;;;;3.56;53.00;98852.25;105502;1257;74543;-24
2023/03/13 10:45:45;;;;;;;3.50;2.30;;;;;;;3.62;53.02;98847.15;105399;1262;74672;-24
2023/03/13 10:48:25;;;;;;;2.90;1.70;;;;;;;3.64;53.14;98846.99;105578;1259;74222;-25
2023/03/13 10:50:56;;;;;;;2.50;1.40;;;;;;;3.73;53.14;98842.58;105314;1256;61149;-24
2023/03/13 10:53:32;;;;;;;1.70;1.40;;;;;;;3.85;53.36;98842.94;105379;1255;61065;-24
2023/03/13 10:56:23;;;;;;;3.40;2.40;;;;;;;4.02;53.53;98841.98;105150;1262;74510;-24
2023/03/13 10:58:52;;;;;;;3.90;1.90;;;;;;;4.18;53.23;98829.55;105512;1257;76267;-25
2023/03/13 11:01:28;;;;;;;1.50;1.40;;;;;;;4.15;53.22;98823.16;105596;1257;74119;-24
2023/03/13 11:04:01;;;;;;;3.40;2.20;;;;;;;4.34;53.50;98826.34;105544;1256;61140;-25
2023/03/13 11:06:33;;;;;;;3.20;2.10;;;;;;;4.37;52.17;98822.61;105433;1254;61109;-24
2023/03/13 11:17:10;;;;;;;2.40;1.40;;;;;;;4.84;52.32;98813.23;102696;1293;599891;-24
2023/03/13 11:27:19;;;;;;;3.40;1.90;;;;;;;5.22;49.28;98769.06;102597;1296;599983;-22
2023/03/13 11:30:01;;;;;;;5.90;1.90;;;;;;;5.56;48.79;98769.83;104805;1267;61164;-25
2023/03/13 11:32:46;;;;;;;2.70;1.30;;;;;;;6.33;48.59;98771.52;104826;1267;61566;-25
2023/03/13 11:35:42;;;;;;;2.50;1.50;;;;;;;6.66;46.30;98767.19;104705;1267;73554;-25
2023/03/13 11:38:22;;;;;;;1.60;1.20;;;;;;;6.18;46.79;98764.25;104878;1272;75852;-25
2023/03/13 11:41:00;;;;;;;2.30;1.50;;;;;;;6.04;47.52;98766.52;103309;1269;2011172;-25
2023/03/13 11:43:37;;;;;;;3.60;2.00;;;;;;;5.87;48.15;98764.57;104888;1269;61077;-25
2023/03/13 11:46:28;;;;;;;2.40;1.60;;;;;;;5.80;48.74;98754.67;104861;1269;61273;-24
2023/03/13 11:49:05;;;;;;;2.40;1.60;;;;;;;6.08;49.09;98757.68;104800;1270;73785;-25
2023/03/13 11:51:48;;;;;;;2.80;1.40;;;;;;;5.92;48.86;98748.02;104813;1269;75984;-25
2023/03/13 11:54:30;;;;;;;4.70;2.30;;;;;;;5.95;48.81;98755.60;104821;1269;73228;-25
2023/03/13 11:56:59;;;;;;;3.40;1.70;;;;;;;5.93;49.39;98756.90;105267;1264;61242;-25
2023/03/13 11:59:53;;;;;;;1.60;1.50;;;;;;;5.85;49.98;98760.02;105648;1261;61628;-25
2023/03/13 12:02:27;;;;;;;2.30;1.60;;;;;;;5.83;50.17;98750.86;105580;1260;72906;-25
2023/03/13 12:04:59;;;;;;;2.20;1.30;;;;;;;5.92;51.18;98753.20;105282;1263;75573;-25
2023/03/13 12:07:34;;;;;;;1.10;1.00;;;;;;;6.14;51.32;98748.52;105141;1256;74446;-25
2023/03/13 12:10:13;;;;;;;1.30;1.20;;;;;;;6.08;51.55;98745.78;105507;1257;61068;-25
2023/03/13 12:12:50;;;;;;;2.20;1.40;;;;;;;6.06;51.23;98741.28;105461;1262;61790;-25
2023/03/13 12:15:25;;;;;;;3.30;1.60;;;;;;;6.19;51.60;98733.64;105295;1263;74476;-25
2023/03/13 12:18:04;;;;;;;1.40;1.10;;;;;;;6.21;51.47;98740.45;105249;1263;75845;-25
2023/03/13 12:20:41;;;;;;;5.60;1.80;;;;;;;6.17;51.47;98731.52;105194;1258;73238;-24
2023/03/13 12:23:15;;;;;;;3.20;1.70;;;;;;;6.02;51.85;98737.01;105212;1257;61118;-24
2023/03/13 12:25:52;;;;;;;2.40;1.70;;;;;;;5.94;51.90;98736.16;105374;1257;61163;-24
2023/03/13 12:28:36;;;;;;;2.00;1.30;;;;;;;5.96;52.15;98729.30;105530;1257;73517;-24
2023/03/13 12:31:23;;;;;;;4.10;2.10;;;;;;;6.06;51.85;98724.51;105531;1262;76019;-24
2023/03/13 12:33:56;;;;;;;2.70;1.50;;;;;;;6.15;52.13;98731.91;105592;1258;73983;-24